Time;durP1;ratioP1;P1;durP2;ratioP2;P2;SDS_P1;SDS_P2;PMS_P1;PMS_P2;Temp;Humidity;BMP_temperature;BMP_pressure;BME280_temperature;BME280_humidity;BME280_pressure;Samples;Min_cycle;Max_cycle;Signal;HPM_P1;HPM_P2
2023/01/28 00:02:06;;;;;;;86.00;28.40;;;;;;;-0.99;100.00;99983.86;104765;1292;22679;-39
2023/01/28 00:04:32;;;;;;;76.00;25.40;;;;;;;-1.01;100.00;99981.34;104850;1292;22796;-30
2023/01/28 00:06:58;;;;;;;81.80;26.10;;;;;;;-1.00;100.00;99981.42;104827;1292;23034;-34
2023/01/28 00:09:24;;;;;;;72.00;20.60;;;;;;;-1.00;100.00;99978.92;104720;1301;22656;-29
2023/01/28 00:11:50;;;;;;;54.80;18.00;;;;;;;-1.00;100.00;99981.95;104627;1292;22563;-34
2023/01/28 00:14:16;;;;;;;48.60;16.00;;;;;;;-0.99;100.00;99981.55;104764;1289;23155;-33
2023/01/28 00:16:42;;;;;;;71.60;20.90;;;;;;;-0.99;100.00;99981.35;104788;1292;22661;-32
2023/01/28 00:19:08;;;;;;;77.80;24.10;;;;;;;-1.00;100.00;99980.23;104671;1295;23064;-29
2023/01/28 00:21:34;;;;;;;70.80;23.30;;;;;;;-0.96;100.00;99984.48;104609;1303;24384;-29
2023/01/28 00:23:59;;;;;;;58.60;21.30;;;;;;;-0.95;100.00;99984.11;104813;1295;22670;-34
2023/01/28 00:26:25;;;;;;;74.90;21.60;;;;;;;-0.97;100.00;99982.95;104703;1292;22660;-29
2023/01/28 00:28:51;;;;;;;57.60;18.70;;;;;;;-0.95;100.00;99983.90;104688;1292;22814;-31
2023/01/28 00:31:21;;;;;;;82.80;26.30;;;;;;;-0.96;100.00;99983.06;104823;1303;24435;-34
2023/01/28 00:33:48;;;;;;;52.90;18.20;;;;;;;-0.94;100.00;99980.14;104922;1292;22660;-35
2023/01/28 00:36:14;;;;;;;62.70;20.40;;;;;;;-0.93;100.00;99981.16;104776;1302;23127;-31
2023/01/28 00:38:41;;;;;;;72.50;20.20;;;;;;;-0.88;100.00;99981.86;104731;1293;23601;-34
2023/01/28 00:41:09;;;;;;;57.90;21.10;;;;;;;-0.93;100.00;99979.91;104699;1292;23162;-29
2023/01/28 00:43:36;;;;;;;45.40;17.60;;;;;;;-0.89;100.00;99985.41;104775;1291;22696;-31
2023/01/28 00:46:02;;;;;;;31.20;12.50;;;;;;;-0.83;100.00;99982.52;104847;1292;22795;-30
2023/01/28 00:48:28;;;;;;;52.90;19.00;;;;;;;-0.87;100.00;99982.80;104878;1301;22796;-31
2023/01/28 00:50:54;;;;;;;65.90;20.30;;;;;;;-0.86;100.00;99981.83;104719;1301;22816;-33
2023/01/28 00:53:20;;;;;;;68.60;22.30;;;;;;;-0.87;100.00;99980.73;104886;1292;22811;-35
2023/01/28 00:55:45;;;;;;;59.30;19.50;;;;;;;-0.85;100.00;99983.77;104777;1300;23025;-30
2023/01/28 00:58:11;;;;;;;77.70;25.80;;;;;;;-0.82;100.00;99983.55;104858;1292;22637;-33
2023/01/28 01:00:36;;;;;;;62.90;21.20;;;;;;;-0.82;100.00;99985.64;104702;1292;23035;-29
2023/01/28 01:03:02;;;;;;;70.90;21.30;;;;;;;-0.86;100.00;99986.27;104741;1303;22778;-30
2023/01/28 01:05:28;;;;;;;60.80;18.20;;;;;;;-0.84;100.00;99989.27;104796;1303;22638;-34
2023/01/28 01:07:54;;;;;;;61.60;23.30;;;;;;;-0.83;100.00;99989.94;104888;1291;24351;-34
2023/01/28 01:10:20;;;;;;;56.60;17.30;;;;;;;-0.83;100.00;99993.13;104831;1292;23172;-34
2023/01/28 01:12:47;;;;;;;87.40;26.70;;;;;;;-0.86;100.00;99995.92;104660;1303;23164;-30
2023/01/28 01:15:13;;;;;;;76.90;23.90;;;;;;;-0.82;100.00;100000.58;104808;1292;24297;-30
2023/01/28 01:17:40;;;;;;;53.90;20.70;;;;;;;-0.79;100.00;100001.56;104829;1292;22798;-30
2023/01/28 01:20:08;;;;;;;92.70;26.70;;;;;;;-0.80;100.00;99999.23;104659;1292;22676;-34
2023/01/28 01:22:35;;;;;;;73.80;21.20;;;;;;;-0.80;100.00;99999.02;104787;1292;22851;-30
2023/01/28 01:25:01;;;;;;;63.00;21.90;;;;;;;-0.82;100.00;100000.90;104887;1291;22559;-32
2023/01/28 01:27:27;;;;;;;61.60;19.90;;;;;;;-0.81;100.00;100006.48;104861;1292;22937;-30
2023/01/28 01:29:52;;;;;;;61.60;19.40;;;;;;;-0.81;100.00;100000.52;104799;1292;22657;-30
2023/01/28 01:32:19;;;;;;;72.70;22.30;;;;;;;-0.81;100.00;100002.10;104633;1303;23035;-34
2023/01/28 01:34:45;;;;;;;67.50;20.80;;;;;;;-0.79;100.00;100001.61;104148;1300;1002879;-31
2023/01/28 01:37:11;;;;;;;94.60;28.80;;;;;;;-0.79;100.00;99999.29;104839;1289;23035;-34
2023/01/28 01:39:37;;;;;;;59.50;21.00;;;;;;;-0.77;100.00;99998.98;104781;1303;22647;-30
2023/01/28 01:42:03;;;;;;;64.80;23.10;;;;;;;-0.78;100.00;99996.94;104736;1292;22792;-33
2023/01/28 01:44:53;;;;;;;86.90;23.60;;;;;;;-0.80;100.00;99996.88;104729;1294;22661;-30
2023/01/28 01:47:19;;;;;;;81.90;24.40;;;;;;;-0.83;100.00;100000.11;104673;1297;24428;-31
2023/01/28 01:49:44;;;;;;;92.90;26.10;;;;;;;-0.78;100.00;99999.39;104796;1291;22661;-31
2023/01/28 01:52:15;;;;;;;84.50;26.70;;;;;;;-0.82;100.00;99999.30;104808;1303;23040;-37
2023/01/28 01:54:42;;;;;;;64.00;21.40;;;;;;;-0.79;100.00;100005.28;104718;1301;22812;-35
2023/01/28 01:57:09;;;;;;;64.50;20.80;;;;;;;-0.78;100.00;100004.83;104786;1292;24339;-34
2023/01/28 01:59:34;;;;;;;74.50;22.90;;;;;;;-0.80;100.00;100005.33;104808;1292;22936;-30
2023/01/28 02:02:02;;;;;;;45.90;17.70;;;;;;;-0.74;100.00;100008.60;104769;1292;22659;-34
2023/01/28 02:04:30;;;;;;;73.80;24.20;;;;;;;-0.76;100.00;100010.31;104706;1303;22638;-34
2023/01/28 02:06:56;;;;;;;49.50;18.40;;;;;;;-0.76;100.00;100010.55;104691;1297;22833;-35
2023/01/28 02:09:30;;;;;;;70.00;20.90;;;;;;;-0.77;100.00;100010.26;104754;1292;22648;-30
2023/01/28 02:11:58;;;;;;;54.00;17.40;;;;;;;-0.78;100.00;100007.12;104696;1292;22659;-30
2023/01/28 02:14:26;;;;;;;42.60;17.50;;;;;;;-0.82;100.00;100009.91;104760;1292;22672;-34
2023/01/28 02:16:52;;;;;;;59.50;18.80;;;;;;;-0.90;100.00;100013.06;104888;1297;24451;-30
2023/01/28 02:19:19;;;;;;;65.30;20.70;;;;;;;-0.85;100.00;100014.32;104659;1302;23024;-30
2023/01/28 02:22:02;;;;;;;57.60;21.00;;;;;;;-0.87;100.00;100018.69;104665;1303;22812;-35
2023/01/28 02:24:51;;;;;;;25.80;11.90;;;;;;;-0.88;100.00;100021.91;104866;1292;22628;-29
2023/01/28 02:27:22;;;;;;;46.30;17.60;;;;;;;-0.88;100.00;100019.12;104944;1303;23045;-31
2023/01/28 02:29:58;;;;;;;71.40;24.20;;;;;;;-0.83;100.00;100023.69;104949;1303;22552;-31
2023/01/28 02:32:29;;;;;;;40.20;16.40;;;;;;;-0.77;100.00;100023.23;104856;1303;22951;-30
2023/01/28 02:35:11;;;;;;;50.50;16.60;;;;;;;-0.74;100.00;100021.40;104992;1299;22662;-38
2023/01/28 02:37:40;;;;;;;46.90;16.80;;;;;;;-0.72;100.00;100020.92;105057;1303;24271;-32
2023/01/28 02:40:15;;;;;;;66.30;20.40;;;;;;;-0.73;100.00;100020.51;104837;1298;22620;-30
2023/01/28 02:42:41;;;;;;;40.20;17.30;;;;;;;-0.73;100.00;100020.28;105023;1301;22607;-30
2023/01/28 02:45:23;;;;;;;44.00;14.80;;;;;;;-0.74;100.00;100025.34;104827;1302;22663;-34
2023/01/28 02:50:41;;;;;;;47.00;17.40;;;;;;;-0.75;100.00;100024.66;104997;1302;24591;-32
2023/01/28 02:56:28;;;;;;;56.90;18.40;;;;;;;-0.76;100.00;100017.36;104935;1302;22902;-34
2023/01/28 02:59:29;;;;;;;46.80;17.50;;;;;;;-0.81;100.00;100019.46;104863;1301;23315;-30
2023/01/28 03:01:48;;;;;;;38.20;17.10;;;;;;;-0.84;100.00;100021.09;105046;1301;23040;-30
2023/01/28 03:04:21;;;;;;;46.40;17.90;;;;;;;-0.83;100.00;100025.63;104966;1302;22648;-30
2023/01/28 03:06:49;;;;;;;;;;;;;;;-0.81;100.00;100028.63;104905;1302;25969;-31
2023/01/28 03:38:47;;;;;;;51.40;18.90;;;;;;;-0.90;100.00;100030.15;104864;1303;22639;-30
2023/01/28 03:41:19;;;;;;;47.80;18.00;;;;;;;-0.86;100.00;100028.65;104913;1298;24144;-33
2023/01/28 03:43:45;;;;;;;63.00;19.80;;;;;;;-0.85;100.00;100026.64;104936;1302;22791;-34
2023/01/28 03:46:11;;;;;;;57.20;18.40;;;;;;;-0.84;100.00;100029.77;105048;1301;22779;-30
2023/01/28 03:48:36;;;;;;;49.60;16.80;;;;;;;-0.86;100.00;100028.79;104913;1302;22636;-30
2023/01/28 03:51:02;;;;;;;58.20;19.10;;;;;;;-0.88;100.00;100029.32;104914;1302;24279;-33
2023/01/28 03:53:28;;;;;;;48.20;20.00;;;;;;;-0.94;100.00;100029.35;104943;1303;22999;-31
2023/01/28 03:55:55;;;;;;;50.00;18.70;;;;;;;-0.98;100.00;100032.98;104889;1303;22671;-35
2023/01/28 03:58:25;;;;;;;60.10;21.00;;;;;;;-0.97;100.00;100027.82;104973;1302;22628;-35
2023/01/28 04:00:54;;;;;;;52.30;19.30;;;;;;;-0.99;100.00;100028.85;104795;1303;24413;-30
2023/01/28 04:03:20;;;;;;;44.80;16.80;;;;;;;-1.01;100.00;100026.68;104938;1303;22704;-35
2023/01/28 04:06:00;;;;;;;43.80;18.60;;;;;;;-0.97;100.00;100031.84;104832;1301;22562;-38
2023/01/28 04:08:27;;;;;;;54.50;18.40;;;;;;;-0.98;100.00;100040.87;104816;1303;22763;-29
2023/01/28 04:10:52;;;;;;;44.00;16.90;;;;;;;-1.04;100.00;100040.21;104900;1301;22654;-34
2023/01/28 04:13:23;;;;;;;46.50;15.90;;;;;;;-1.04;100.00;100039.90;104953;1301;23027;-33
2023/01/28 04:15:50;;;;;;;36.80;13.50;;;;;;;-1.03;100.00;100043.83;104840;1302;22556;-33
2023/01/28 04:18:16;;;;;;;46.00;18.90;;;;;;;-1.05;100.00;100048.58;104833;1303;23027;-30
2023/01/28 04:20:42;;;;;;;36.20;13.00;;;;;;;-1.09;100.00;100049.73;104892;1303;22573;-29
2023/01/28 04:23:08;;;;;;;30.90;10.40;;;;;;;-1.07;100.00;100051.20;104786;1303;23091;-31
2023/01/28 04:25:34;;;;;;;45.20;17.10;;;;;;;-1.11;100.00;100051.11;104954;1303;22559;-33
2023/01/28 04:28:00;;;;;;;30.90;13.10;;;;;;;-1.12;100.00;100053.09;104732;1303;22741;-30
2023/01/28 04:30:26;;;;;;;39.60;15.20;;;;;;;-1.10;100.00;100053.66;104896;1303;22769;-29
2023/01/28 04:32:52;;;;;;;34.50;14.20;;;;;;;-1.09;100.00;100054.17;104991;1303;22537;-30
2023/01/28 04:35:18;;;;;;;58.50;19.20;;;;;;;-1.08;100.00;100053.38;104947;1303;22568;-34
2023/01/28 04:37:44;;;;;;;46.70;19.30;;;;;;;-1.06;100.00;100052.30;104688;1304;24368;-32
2023/01/28 05:15:52;;;;;;;39.30;17.00;;;;;;;-1.15;100.00;100068.08;104538;1302;557662;-31
2023/01/28 05:18:19;;;;;;;35.80;15.40;;;;;;;-1.06;100.00;100068.54;102801;1302;1003659;-35
2023/01/28 05:20:44;;;;;;;29.20;10.30;;;;;;;-1.10;100.00;100073.16;104872;1303;22676;-30
2023/01/28 05:23:10;;;;;;;47.30;18.70;;;;;;;-1.12;100.00;100073.17;104866;1302;23036;-30
2023/01/28 05:25:36;;;;;;;34.90;14.50;;;;;;;-1.10;100.00;100073.21;104919;1301;22693;-35
2023/01/28 05:28:02;;;;;;;49.30;18.70;;;;;;;-1.07;100.00;100075.46;104851;1303;23039;-36
2023/01/28 05:30:27;;;;;;;44.70;14.60;;;;;;;-1.05;100.00;100077.79;104915;1302;22662;-33
2023/01/28 05:32:54;;;;;;;29.90;12.90;;;;;;;-1.10;100.00;100076.55;104853;1301;22640;-30
2023/01/28 05:35:20;;;;;;;37.30;15.70;;;;;;;-1.08;100.00;100080.09;104666;1303;22937;-34
2023/01/28 05:37:46;;;;;;;43.80;17.70;;;;;;;-1.09;100.00;100080.50;104813;1296;22684;-33
2023/01/28 05:40:12;;;;;;;38.70;15.30;;;;;;;-1.08;100.00;100085.34;105133;1301;22766;-34
2023/01/28 05:42:38;;;;;;;35.90;16.40;;;;;;;-1.05;100.00;100081.29;104955;1303;24269;-30
2023/01/28 05:45:04;;;;;;;33.60;13.40;;;;;;;-1.06;100.00;100080.80;104995;1300;25333;-30
2023/01/28 05:47:30;;;;;;;24.90;11.60;;;;;;;-1.10;100.00;100082.35;104889;1301;22803;-33
2023/01/28 05:49:55;;;;;;;46.70;18.70;;;;;;;-1.12;100.00;100086.14;104890;1302;25379;-30
2023/01/28 05:52:21;;;;;;;45.50;15.60;;;;;;;-1.06;100.00;100087.86;104849;1303;23294;-30
2023/01/28 05:54:47;;;;;;;44.00;18.20;;;;;;;-1.08;100.00;100088.00;104870;1303;23166;-30
2023/01/28 05:57:13;;;;;;;46.30;18.30;;;;;;;-1.10;100.00;100091.11;104953;1303;23175;-33
2023/01/28 05:59:38;;;;;;;41.70;14.80;;;;;;;-1.13;100.00;100092.71;104855;1303;22696;-34
2023/01/28 06:02:04;;;;;;;36.50;13.50;;;;;;;-1.13;100.00;100093.06;104856;1302;22577;-30
2023/01/28 06:04:30;;;;;;;41.60;14.60;;;;;;;-1.11;100.00;100093.64;104861;1303;22674;-30
2023/01/28 06:06:55;;;;;;;32.80;14.20;;;;;;;-1.13;100.00;100093.95;105113;1302;23159;-35
2023/01/28 06:09:21;;;;;;;33.50;13.90;;;;;;;-1.09;100.00;100098.10;104950;1302;24287;-31
2023/01/28 06:11:49;;;;;;;19.50;8.50;;;;;;;-1.08;100.00;100095.00;104910;1303;22604;-38
2023/01/28 06:14:15;;;;;;;34.00;14.10;;;;;;;-1.12;100.00;100098.09;105065;1302;22697;-34
2023/01/28 06:16:40;;;;;;;32.70;13.90;;;;;;;-1.06;100.00;100100.67;104875;1303;22748;-34
2023/01/28 06:19:06;;;;;;;35.80;14.70;;;;;;;-1.02;100.00;100101.08;104906;1300;24282;-30
2023/01/28 06:21:32;;;;;;;32.90;13.30;;;;;;;-1.00;100.00;100107.99;105045;1302;22666;-30
2023/01/28 06:23:58;;;;;;;43.60;16.00;;;;;;;-0.96;100.00;100108.08;104843;1301;24299;-30
2023/01/28 06:26:23;;;;;;;40.40;17.70;;;;;;;-1.00;100.00;100107.77;104704;1304;23166;-29
2023/01/28 06:28:49;;;;;;;44.40;14.80;;;;;;;-1.01;100.00;100106.98;104948;1301;22793;-33
2023/01/28 06:31:15;;;;;;;34.70;14.10;;;;;;;-1.04;100.00;100106.33;104710;1301;22689;-33
2023/01/28 06:33:41;;;;;;;35.80;15.00;;;;;;;-1.02;100.00;100114.09;104923;1303;24159;-30
2023/01/28 06:36:07;;;;;;;30.30;13.70;;;;;;;-1.02;100.00;100114.25;104946;1302;22798;-33
2023/01/28 06:38:34;;;;;;;35.20;13.10;;;;;;;-1.00;100.00;100115.54;104957;1303;24185;-35
2023/01/28 06:40:59;;;;;;;39.10;14.30;;;;;;;-1.02;100.00;100123.09;104951;1301;22683;-31
2023/01/28 06:43:27;;;;;;;40.20;16.90;;;;;;;-1.06;100.00;100123.86;104992;1302;22792;-30
2023/01/28 06:45:53;;;;;;;33.20;13.40;;;;;;;-1.07;100.00;100124.78;104839;1301;22727;-29
2023/01/28 06:48:20;;;;;;;29.10;14.40;;;;;;;-1.07;100.00;100128.86;104918;1303;23292;-34
2023/01/28 06:50:46;;;;;;;29.60;12.80;;;;;;;-1.10;100.00;100132.91;104945;1303;24226;-34
2023/01/28 06:53:13;;;;;;;33.00;15.40;;;;;;;-1.12;100.00;100138.14;104832;1298;22860;-34
2023/01/28 06:55:38;;;;;;;36.20;15.60;;;;;;;-1.11;100.00;100140.55;104977;1302;22666;-34
2023/01/28 06:58:04;;;;;;;35.80;16.20;;;;;;;-1.12;100.00;100142.24;105016;1302;23033;-34
2023/01/28 07:00:30;;;;;;;38.00;15.90;;;;;;;-1.13;100.00;100144.19;104879;1303;22800;-33
2023/01/28 07:02:56;;;;;;;33.60;14.70;;;;;;;-1.09;100.00;100147.64;104660;1303;22790;-35
2023/01/28 07:05:22;;;;;;;27.20;12.70;;;;;;;-1.09;100.00;100151.68;104915;1301;22560;-34
2023/01/28 07:07:48;;;;;;;36.50;16.10;;;;;;;-1.07;100.00;100153.44;104807;1303;23024;-34
2023/01/28 07:10:14;;;;;;;32.60;13.60;;;;;;;-1.06;100.00;100158.16;104967;1301;23299;-30
2023/01/28 07:12:40;;;;;;;48.90;19.80;;;;;;;-1.04;100.00;100160.14;104895;1303;22663;-30
2023/01/28 07:15:06;;;;;;;59.50;22.90;;;;;;;-1.06;100.00;100158.65;104800;1302;22660;-35
2023/01/28 07:17:32;;;;;;;36.80;15.40;;;;;;;-1.07;100.00;100162.80;104715;1303;23173;-33
2023/01/28 07:19:59;;;;;;;46.30;17.10;;;;;;;-1.07;100.00;100162.64;105065;1303;23058;-29
2023/01/28 07:22:24;;;;;;;42.40;16.30;;;;;;;-1.05;100.00;100166.83;104886;1302;23026;-33
2023/01/28 07:24:51;;;;;;;35.80;15.80;;;;;;;-1.04;100.00;100172.39;104816;1301;22813;-34
2023/01/28 07:27:16;;;;;;;38.60;15.20;;;;;;;-1.02;100.00;100171.94;104841;1301;22660;-33
2023/01/28 07:29:42;;;;;;;38.70;16.60;;;;;;;-1.09;100.00;100169.75;104864;1301;22657;-30
2023/01/28 07:32:08;;;;;;;34.50;15.20;;;;;;;-1.04;100.00;100171.52;104933;1302;22994;-29
2023/01/28 07:34:37;;;;;;;32.70;16.10;;;;;;;-1.07;100.00;100174.56;105056;1303;23165;-36
2023/01/28 07:37:03;;;;;;;31.50;13.60;;;;;;;-1.08;100.00;100179.70;104927;1299;22820;-36
2023/01/28 07:39:29;;;;;;;29.30;9.90;;;;;;;-1.06;100.00;100183.67;104917;1303;23024;-33
2023/01/28 07:41:55;;;;;;;41.20;17.30;;;;;;;-1.07;100.00;100185.94;104898;1302;23136;-34
2023/01/28 07:44:21;;;;;;;37.20;11.30;;;;;;;-1.05;100.00;100188.49;104749;1304;22784;-29
2023/01/28 07:46:46;;;;;;;51.40;22.00;;;;;;;-1.08;100.00;100186.24;104902;1303;23582;-34
2023/01/28 07:49:12;;;;;;;35.50;15.10;;;;;;;-1.08;100.00;100188.17;104950;1301;22821;-30
2023/01/28 07:51:38;;;;;;;22.70;11.40;;;;;;;-1.08;100.00;100188.17;104670;1304;22812;-34
2023/01/28 07:54:04;;;;;;;23.10;10.80;;;;;;;-1.10;100.00;100190.04;104975;1304;22885;-34
2023/01/28 07:56:30;;;;;;;22.20;10.00;;;;;;;-1.10;100.00;100193.20;104889;1302;22666;-31
2023/01/28 07:58:55;;;;;;;22.70;10.40;;;;;;;-1.11;100.00;100195.91;104859;1304;22566;-29
2023/01/28 08:01:21;;;;;;;25.60;10.70;;;;;;;-1.11;100.00;100195.59;104823;1302;22679;-33
2023/01/28 08:03:47;;;;;;;30.00;13.30;;;;;;;-1.15;100.00;100201.27;104796;1302;22782;-29
2023/01/28 08:06:13;;;;;;;27.00;13.50;;;;;;;-1.15;100.00;100203.89;104784;1303;22803;-31
2023/01/28 08:08:39;;;;;;;29.40;13.20;;;;;;;-1.15;100.00;100202.84;104895;1303;24305;-30
2023/01/28 08:11:09;;;;;;;36.00;15.40;;;;;;;-1.18;100.00;100207.79;104879;1303;22977;-33
2023/01/28 08:13:35;;;;;;;31.20;14.70;;;;;;;-1.17;100.00;100203.66;104907;1303;22788;-30
2023/01/28 08:16:01;;;;;;;37.90;15.50;;;;;;;-1.15;100.00;100200.21;104716;1304;24235;-34
2023/01/28 08:22:04;;;;;;;50.60;21.60;;;;;;;-1.17;100.00;100205.27;102717;1308;1003334;-35
2023/01/28 08:24:32;;;;;;;34.00;14.90;;;;;;;-1.19;100.00;100210.33;103708;1304;23173;-34
2023/01/28 08:26:58;;;;;;;30.30;11.50;;;;;;;-1.15;100.00;100209.73;103539;1304;23040;-34
2023/01/28 08:29:24;;;;;;;23.80;13.20;;;;;;;-1.19;100.00;100209.27;103512;1307;22838;-35
2023/01/28 08:31:49;;;;;;;27.00;11.10;;;;;;;-1.21;100.00;100209.91;103471;1307;24783;-31
2023/01/28 08:34:15;;;;;;;30.40;12.40;;;;;;;-1.14;100.00;100207.71;103578;1307;22963;-31
2023/01/28 08:36:41;;;;;;;29.80;11.30;;;;;;;-1.14;100.00;100209.29;103461;1304;458800;-32
2023/01/28 08:39:06;;;;;;;31.10;12.10;;;;;;;-1.13;100.00;100204.86;103649;1313;22681;-35
2023/01/28 08:41:32;;;;;;;28.30;11.60;;;;;;;-1.13;100.00;100208.38;103752;1313;23047;-27
2023/01/28 08:43:59;;;;;;;11.20;5.10;;;;;;;-1.14;100.00;100209.13;103753;1298;23024;-35
2023/01/28 08:46:25;;;;;;;23.10;10.90;;;;;;;-1.13;100.00;100212.08;103742;1313;22682;-32
2023/01/28 08:48:50;;;;;;;19.20;9.70;;;;;;;-1.16;100.00;100211.05;103711;1303;24106;-33
2023/01/28 08:51:16;;;;;;;28.00;11.90;;;;;;;-1.12;100.00;100221.46;103578;1307;22648;-29
2023/01/28 08:53:42;;;;;;;29.20;12.40;;;;;;;-1.08;100.00;100218.93;103720;1301;22675;-30
2023/01/28 08:56:08;;;;;;;33.20;14.80;;;;;;;-1.09;100.00;100223.02;103688;1295;23038;-32
2023/01/28 08:58:33;;;;;;;40.60;16.90;;;;;;;-1.09;100.00;100222.33;103740;1304;22577;-34
2023/01/28 09:01:05;;;;;;;42.80;17.70;;;;;;;-1.07;100.00;100216.56;103642;1304;22963;-34
2023/01/28 09:03:32;;;;;;;36.80;16.20;;;;;;;-1.05;100.00;100221.54;103766;1313;24268;-30
2023/01/28 09:06:02;;;;;;;23.20;11.80;;;;;;;-1.08;100.00;100222.98;103700;1313;22562;-30
2023/01/28 09:08:28;;;;;;;30.20;15.40;;;;;;;-1.14;100.00;100222.30;103563;1307;22671;-34
2023/01/28 09:10:55;;;;;;;41.90;16.80;;;;;;;-1.09;100.00;100235.33;103468;1300;22681;-30
2023/01/28 09:13:21;;;;;;;34.60;14.50;;;;;;;-1.09;100.00;100235.49;103713;1304;22660;-34
2023/01/28 09:15:47;;;;;;;49.20;17.20;;;;;;;-1.10;100.00;100239.44;103696;1304;22681;-29
2023/01/28 09:18:13;;;;;;;39.90;13.90;;;;;;;-1.10;100.00;100241.35;103471;1313;22654;-30
2023/01/28 09:20:39;;;;;;;39.90;14.50;;;;;;;-1.07;100.00;100240.48;103766;1304;22635;-30
2023/01/28 09:23:05;;;;;;;34.80;14.40;;;;;;;-1.03;100.00;100239.48;103797;1313;22666;-29
2023/01/28 09:25:32;;;;;;;42.70;17.50;;;;;;;-1.06;100.00;100238.64;103827;1304;22826;-34
2023/01/28 09:27:58;;;;;;;32.80;14.70;;;;;;;-1.02;100.00;100236.61;103896;1301;25326;-33
2023/01/28 09:30:24;;;;;;;48.70;17.40;;;;;;;-0.94;100.00;100229.77;103974;1310;22646;-28
2023/01/28 09:32:51;;;;;;;;;;;;;;;-0.89;100.00;100232.27;103934;1311;25298;-34
2023/01/28 09:35:17;;;;;;;61.40;24.10;;;;;;;-0.92;100.00;100228.18;103754;1311;22568;-33
2023/01/28 09:37:42;;;;;;;77.60;24.80;;;;;;;-0.91;100.00;100228.67;103799;1312;22611;-32
2023/01/28 09:40:13;;;;;;;84.90;23.40;;;;;;;-0.88;100.00;100229.86;104040;1311;22836;-28
2023/01/28 09:42:52;;;;;;;74.60;22.30;;;;;;;-0.80;100.00;100226.38;103837;1312;25509;-35
2023/01/28 09:45:35;;;;;;;56.70;20.60;;;;;;;-0.85;100.00;100224.80;103791;1307;22743;-29
2023/01/28 09:48:02;;;;;;;45.80;16.30;;;;;;;-0.85;100.00;100224.95;103723;1308;23046;-30
2023/01/28 09:50:41;;;;;;;47.10;16.60;;;;;;;-0.94;100.00;100225.36;103962;1307;22670;-30
2023/01/28 09:53:22;;;;;;;50.20;21.60;;;;;;;-0.91;100.00;100227.29;103955;1311;22682;-30
2023/01/28 09:56:00;;;;;;;37.60;15.30;;;;;;;-0.87;100.00;100229.13;103786;1307;22695;-29
2023/01/28 09:58:26;;;;;;;34.10;14.20;;;;;;;-0.84;100.00;100233.86;103900;1311;23018;-34
2023/01/28 10:01:16;;;;;;;53.10;20.50;;;;;;;-0.84;100.00;100231.36;103895;1309;22812;-29
2023/01/28 10:03:54;;;;;;;34.20;13.00;;;;;;;-0.85;100.00;100228.96;104032;1306;22688;-34
2023/01/28 10:06:42;;;;;;;35.80;13.10;;;;;;;-0.88;100.00;100228.66;103951;1311;24282;-31
2023/01/28 10:09:27;;;;;;;42.90;14.60;;;;;;;-0.88;100.00;100233.23;104061;1307;22674;-35
2023/01/28 10:12:12;;;;;;;43.10;14.10;;;;;;;-0.89;100.00;100231.73;103862;1307;22839;-35
2023/01/28 10:15:00;;;;;;;22.40;11.70;;;;;;;-0.89;100.00;100230.63;103970;1310;22814;-35
2023/01/28 10:17:38;;;;;;;39.20;15.30;;;;;;;-1.02;100.00;100228.01;103949;1307;24299;-35
2023/01/28 10:20:29;;;;;;;24.90;11.50;;;;;;;-1.02;100.00;100228.86;103868;1311;23040;-35
2023/01/28 10:23:01;;;;;;;21.10;9.90;;;;;;;-1.01;100.00;100232.11;103938;1312;24249;-31
2023/01/28 10:25:29;;;;;;;28.90;13.10;;;;;;;-0.98;100.00;100229.31;104012;1311;22707;-29
2023/01/28 10:27:56;;;;;;;13.50;7.90;;;;;;;-0.95;100.00;100228.46;104078;1309;22604;-29
2023/01/28 10:30:27;;;;;;;21.50;12.10;;;;;;;-0.97;100.00;100230.29;104000;1310;22960;-34
2023/01/28 10:32:56;;;;;;;28.80;12.70;;;;;;;-0.97;100.00;100231.01;104030;1310;24298;-34
2023/01/28 10:35:22;;;;;;;30.10;12.50;;;;;;;-0.96;100.00;100228.30;103857;1311;22817;-36
2023/01/28 10:37:48;;;;;;;25.90;11.40;;;;;;;-0.91;100.00;100230.97;104066;1310;22796;-29
2023/01/28 10:40:15;;;;;;;27.60;8.90;;;;;;;-0.91;100.00;100230.79;103977;1312;22796;-29
2023/01/28 10:42:41;;;;;;;30.00;12.10;;;;;;;-0.90;100.00;100232.29;104100;1311;23052;-33
2023/01/28 10:45:21;;;;;;;31.30;13.60;;;;;;;-0.96;100.00;100227.44;103914;1310;23294;-30
2023/01/28 10:48:00;;;;;;;29.90;11.50;;;;;;;-0.94;100.00;100223.42;104044;1310;23036;-34
2023/01/28 10:50:27;;;;;;;22.80;8.60;;;;;;;-0.90;100.00;100221.95;104014;1312;22805;-30
2023/01/28 10:52:58;;;;;;;29.40;12.80;;;;;;;-0.83;100.00;100226.02;103947;1312;22576;-29
2023/01/28 10:55:27;;;;;;;30.20;12.10;;;;;;;-0.85;100.00;100227.06;103875;1311;23292;-35
2023/01/28 10:57:53;;;;;;;24.80;12.10;;;;;;;-0.90;100.00;100221.72;103979;1310;24165;-30
2023/01/28 11:00:23;;;;;;;25.00;12.20;;;;;;;-0.91;100.00;100223.60;104014;1311;22818;-34
2023/01/28 11:02:49;;;;;;;27.20;11.70;;;;;;;-0.87;100.00;100220.68;104042;1310;22573;-35
2023/01/28 11:45:35;;;;;;;45.50;20.30;;;;;;;-1.09;100.00;100220.54;104475;1296;559087;-33
2023/01/28 11:48:13;;;;;;;45.10;20.30;;;;;;;-1.10;100.00;100215.73;104232;1291;447930;-34
2023/01/28 11:50:45;;;;;;;44.20;17.20;;;;;;;-1.16;100.00;100215.73;104593;1294;22804;-31
2023/01/28 11:53:27;;;;;;;40.60;17.30;;;;;;;-1.06;100.00;100218.40;104023;1303;1003180;-31
2023/01/28 11:56:10;;;;;;;51.70;17.90;;;;;;;-1.06;100.00;100216.34;104822;1300;24452;-30
2023/01/28 11:58:57;;;;;;;39.30;20.10;;;;;;;-1.03;100.00;100218.75;104795;1303;22662;-36
2023/01/28 12:01:44;;;;;;;45.20;19.10;;;;;;;-0.96;100.00;100218.24;104761;1303;25433;-30
2023/01/28 12:04:23;;;;;;;46.70;18.40;;;;;;;-0.95;100.00;100219.10;104788;1301;24280;-35
2023/01/28 12:07:11;;;;;;;43.20;19.50;;;;;;;-0.98;100.00;100219.48;104779;1300;24412;-30
2023/01/28 12:09:56;;;;;;;38.50;17.50;;;;;;;-1.00;100.00;100219.61;104807;1300;24170;-30
2023/01/28 12:12:40;;;;;;;42.60;18.90;;;;;;;-0.90;100.00;100209.96;104788;1300;24278;-31
2023/01/28 12:15:38;;;;;;;40.70;14.90;;;;;;;-0.90;100.00;100211.05;104757;1301;22796;-31
2023/01/28 12:18:21;;;;;;;42.90;19.40;;;;;;;-1.02;100.00;100208.30;104728;1297;22799;-33
2023/01/28 12:21:11;;;;;;;39.10;19.00;;;;;;;-1.03;100.00;100207.66;104809;1300;24253;-34
2023/01/28 12:24:00;;;;;;;55.20;20.80;;;;;;;-1.01;100.00;100208.08;104754;1301;22767;-35
2023/01/28 12:26:44;;;;;;;39.50;16.90;;;;;;;-0.98;100.00;100207.69;104653;1301;23088;-36
2023/01/28 12:29:28;;;;;;;33.70;14.10;;;;;;;-0.91;100.00;100207.40;104719;1300;22570;-36
2023/01/28 12:32:02;;;;;;;43.80;19.50;;;;;;;-0.94;100.00;100206.33;104738;1297;23164;-29
2023/01/28 12:34:51;;;;;;;39.70;17.60;;;;;;;-0.89;100.00;100207.13;104761;1297;22693;-35
2023/01/28 12:37:26;;;;;;;32.60;16.60;;;;;;;-0.87;100.00;100203.63;104753;1303;24483;-35
2023/01/28 12:40:19;;;;;;;26.70;14.50;;;;;;;-0.86;100.00;100204.80;104757;1300;22681;-32
2023/01/28 12:42:51;;;;;;;39.60;17.10;;;;;;;-0.83;100.00;100206.70;104812;1303;22670;-36
2023/01/28 12:45:22;;;;;;;40.00;18.90;;;;;;;-0.89;100.00;100210.59;104729;1303;23301;-29
2023/01/28 12:48:00;;;;;;;45.30;20.90;;;;;;;-0.88;100.00;100210.73;104751;1300;22901;-36
2023/01/28 12:50:31;;;;;;;40.90;18.00;;;;;;;-0.85;100.00;100212.29;104791;1297;24329;-34
2023/01/28 12:52:59;;;;;;;33.00;14.00;;;;;;;-0.84;100.00;100208.16;104906;1300;22615;-30
2023/01/28 12:55:37;;;;;;;33.30;15.20;;;;;;;-0.88;100.00;100212.11;104812;1300;22583;-35
2023/01/28 12:58:04;;;;;;;43.30;20.20;;;;;;;-0.87;100.00;100215.44;104770;1303;23167;-34
2023/01/28 13:00:40;;;;;;;43.00;19.80;;;;;;;-0.91;100.00;100219.02;104802;1297;22774;-35